createdAt,value
2022-09-28T00:01:44.944Z,99251.72
2022-09-28T00:04:48.955Z,99248.91
2022-09-28T00:07:51.777Z,99248.63
2022-09-28T00:10:56.055Z,99239.81
2022-09-28T00:14:03.407Z,99247.84
2022-09-28T00:17:05.987Z,99250.97
2022-09-28T00:20:10.596Z,99248.50
2022-09-28T00:23:13.193Z,99245.72
2022-09-28T00:26:15.734Z,99248.75
2022-09-28T00:29:21.809Z,99250.44
2022-09-28T00:32:25.043Z,99236.41
2022-09-28T00:35:28.967Z,99232.81
2022-09-28T00:38:31.530Z,99231.09
2022-09-28T00:41:34.265Z,99239.72
2022-09-28T00:44:42.361Z,99229.22
2022-09-28T00:47:51.407Z,99226.91
2022-09-28T00:50:56.025Z,99228.81
2022-09-28T00:54:00.651Z,99223.09
2022-09-28T00:57:04.965Z,99218.63
2022-09-28T01:00:09.374Z,99218.41
2022-09-28T01:03:14.185Z,99215.69
2022-09-28T01:06:20.260Z,99209.22
2022-09-28T01:09:23.314Z,99207.09
2022-09-28T01:12:26.088Z,99212.50
2022-09-28T01:15:30.742Z,99205.81
2022-09-28T01:18:41.042Z,99214.94
2022-09-28T01:21:51.878Z,99207.09
2022-09-28T01:25:01.029Z,99207.19
2022-09-28T01:28:08.704Z,99204.53
2022-09-28T01:31:13.643Z,99208.16
2022-09-28T01:34:22.173Z,99202.00
2022-09-28T01:37:29.467Z,99211.75
2022-09-28T01:40:33.806Z,99205.69
2022-09-28T01:43:41.477Z,99198.13
2022-09-28T01:46:48.181Z,99201.88
2022-09-28T01:49:57.481Z,99201.22
2022-09-28T01:53:06.702Z,99193.88
2022-09-28T01:56:14.284Z,99192.38
2022-09-28T01:59:20.721Z,99190.97
2022-09-28T02:02:27.539Z,99194.69
2022-09-28T02:05:33.808Z,99195.72
2022-09-28T02:08:40.985Z,99190.84
2022-09-28T02:11:48.273Z,99190.19
2022-09-28T02:14:56.222Z,99186.28
2022-09-28T02:17:58.891Z,99188.56
2022-09-28T02:21:09.853Z,99192.22
2022-09-28T02:24:21.356Z,99182.50
2022-09-28T02:27:32.763Z,99188.56
2022-09-28T02:30:38.876Z,99177.41
2022-09-28T02:33:44.556Z,99179.69
2022-09-28T02:36:47.944Z,99172.88
2022-09-28T02:39:50.415Z,99180.06
2022-09-28T02:43:03.164Z,99176.75
2022-09-28T02:46:17.589Z,99170.06
2022-09-28T02:49:28.908Z,99172.16
2022-09-28T02:52:51.344Z,99175.47
2022-09-28T02:56:11.491Z,99177.66
2022-09-28T02:59:21.653Z,99171.97
2022-09-28T03:02:34.994Z,99176.97
2022-09-28T03:05:47.600Z,99174.56
2022-09-28T03:08:55.738Z,99165.72
2022-09-28T03:12:02.065Z,99160.75
2022-09-28T03:15:13.190Z,99163.97
2022-09-28T03:18:17.266Z,99164.81
2022-09-28T03:21:19.856Z,99168.97
2022-09-28T03:24:22.509Z,99167.84
2022-09-28T03:27:25.077Z,99164.63
2022-09-28T03:30:27.719Z,99167.50
2022-09-28T03:33:31.765Z,99165.19
2022-09-28T03:36:34.270Z,99164.47
2022-09-28T03:39:36.802Z,99161.13
2022-09-28T03:42:39.292Z,99160.84
2022-09-28T03:45:41.843Z,99155.00
2022-09-28T03:48:45.823Z,99150.56
2022-09-28T03:51:48.310Z,99157.06
2022-09-28T03:54:50.807Z,99153.09
2022-09-28T03:57:56.604Z,99151.94
2022-09-28T04:01:03.773Z,99154.16
2022-09-28T04:04:07.666Z,99155.34
2022-09-28T04:07:10.148Z,99158.94
2022-09-28T04:10:12.650Z,99158.72
2022-09-28T04:13:15.705Z,99162.28
2022-09-28T04:16:18.905Z,99155.63
2022-09-28T04:19:22.965Z,99160.50
2022-09-28T04:22:25.470Z,99162.22
2022-09-28T04:25:27.940Z,99167.56
2022-09-28T04:28:48.069Z,99161.25
2022-09-28T04:31:52.790Z,99162.38
2022-09-28T04:34:56.771Z,99167.41
2022-09-28T04:37:59.239Z,99162.38
2022-09-28T04:41:02.159Z,99162.38
2022-09-28T04:44:04.683Z,99163.34
2022-09-28T04:47:07.197Z,99158.13
2022-09-28T04:50:11.295Z,99164.56
2022-09-28T04:53:13.782Z,99163.13
2022-09-28T04:56:17.593Z,99159.06
2022-09-28T04:59:20.066Z,99162.19
2022-09-28T05:02:22.658Z,99171.25
2022-09-28T05:05:26.515Z,99168.25
2022-09-28T05:08:29.500Z,99163.16
2022-09-28T05:11:31.971Z,99170.31
2022-09-28T05:14:34.478Z,99158.06
2022-09-28T05:17:37.057Z,99165.78
2022-09-28T05:20:42.754Z,99169.38
2022-09-28T05:23:47.651Z,99173.16
2022-09-28T05:26:50.191Z,99159.00
2022-09-28T05:29:52.713Z,99167.50
2022-09-28T05:32:55.176Z,99170.09
2022-09-28T05:36:01.352Z,99168.88
2022-09-28T05:39:04.436Z,99163.06
2022-09-28T05:42:07.893Z,99165.59
2022-09-28T05:45:11.621Z,99163.53
2022-09-28T05:48:14.089Z,99171.28
2022-09-28T05:51:17.944Z,99166.16
2022-09-28T05:54:20.657Z,99164.84
2022-09-28T05:57:23.277Z,99165.19
2022-09-28T06:00:26.083Z,99161.03
2022-09-28T06:03:28.612Z,99158.38
2022-09-28T06:06:32.468Z,99165.59
2022-09-28T06:09:34.949Z,99157.25
2022-09-28T06:12:37.398Z,99159.59
2022-09-28T06:15:43.401Z,99157.47
2022-09-28T06:18:45.866Z,99174.16
2022-09-28T06:21:49.691Z,99173.53
2022-09-28T06:24:52.183Z,99168.75
2022-09-28T06:27:56.363Z,99181.88
2022-09-28T06:31:00.642Z,99186.53
2022-09-28T06:34:03.148Z,99190.41
2022-09-28T06:37:06.943Z,99183.00
2022-09-28T06:40:10.181Z,99193.00
2022-09-28T06:43:15.114Z,99187.78
2022-09-28T06:46:17.683Z,99188.81
2022-09-28T06:49:20.186Z,99192.38
2022-09-28T06:52:24.023Z,99195.97
2022-09-28T06:55:27.404Z,99192.91
2022-09-28T06:58:31.431Z,99199.59
2022-09-28T07:01:33.941Z,99189.28
2022-09-28T07:04:36.625Z,99192.59
2022-09-28T07:07:42.841Z,99194.63
2022-09-28T07:10:47.410Z,99193.22
2022-09-28T07:13:51.375Z,99194.41
2022-09-28T07:17:12.251Z,99203.00
2022-09-28T07:20:19.467Z,99207.28
2022-09-28T07:23:23.835Z,99211.16
2022-09-28T07:26:26.697Z,99212.59
2022-09-28T07:29:29.145Z,99213.16
2022-09-28T07:35:41.691Z,99219.72
2022-09-28T07:38:45.489Z,99218.41
2022-09-28T07:41:48.777Z,99223.91
2022-09-28T07:44:51.364Z,99227.44
2022-09-28T07:47:56.321Z,99227.78
2022-09-28T07:51:00.123Z,99231.97
2022-09-28T07:54:03.952Z,99226.38
2022-09-28T07:57:06.908Z,99229.28
2022-09-28T08:00:10.669Z,99227.81
2022-09-28T08:03:13.174Z,99229.66
2022-09-28T08:06:17.590Z,99234.53
2022-09-28T08:09:21.408Z,99236.03
2022-09-28T08:12:23.885Z,99242.09
2022-09-28T08:15:27.153Z,99236.47
2022-09-28T08:18:29.869Z,99238.69
2022-09-28T08:21:46.276Z,99243.66
2022-09-28T08:24:50.562Z,99245.69
2022-09-28T08:27:53.076Z,99254.22
2022-09-28T08:30:55.653Z,99250.50
2022-09-28T08:33:58.607Z,99253.53
2022-09-28T08:37:01.081Z,99254.00
2022-09-28T08:40:05.691Z,99256.34
2022-09-28T08:43:23.622Z,99256.47
2022-09-28T08:46:29.508Z,99262.81
2022-09-28T08:49:37.821Z,99260.53
2022-09-28T08:52:41.549Z,99267.19
2022-09-28T08:55:46.361Z,99262.31
2022-09-28T08:58:55.432Z,99271.53
2022-09-28T09:02:03.415Z,99281.03
2022-09-28T09:05:08.922Z,99277.81
2022-09-28T09:08:27.090Z,99271.97
2022-09-28T09:11:45.144Z,99273.72
2022-09-28T09:15:13.005Z,99274.25
2022-09-28T09:18:27.397Z,99272.63
2022-09-28T09:21:40.963Z,99274.78
2022-09-28T09:24:50.635Z,99275.28
2022-09-28T09:28:28.237Z,99282.72
2022-09-28T09:31:42.731Z,99280.59
2022-09-28T09:35:05.463Z,99285.03
2022-09-28T09:38:21.988Z,99279.41
2022-09-28T09:41:39.993Z,99292.41
2022-09-28T09:44:59.757Z,99290.59
2022-09-28T09:48:04.663Z,99282.72
2022-09-28T09:51:18.973Z,99284.97
2022-09-28T09:54:27.660Z,99283.16
2022-09-28T09:57:34.377Z,99288.91
2022-09-28T10:00:41.796Z,99288.69
2022-09-28T10:03:48.760Z,99293.28
2022-09-28T10:06:54.428Z,99291.03
2022-09-28T10:09:59.302Z,99297.19
2022-09-28T10:13:02.534Z,99297.63
2022-09-28T10:16:08.065Z,99290.53
2022-09-28T10:19:12.871Z,99298.13
2022-09-28T10:22:23.724Z,99302.75
2022-09-28T10:25:26.449Z,99292.72
2022-09-28T10:28:36.515Z,99296.47
2022-09-28T10:31:42.523Z,99300.16
2022-09-28T10:34:48.839Z,99302.38
2022-09-28T10:37:59.169Z,99303.50
2022-09-28T10:41:09.520Z,99307.66
2022-09-28T10:44:19.360Z,99308.44
2022-09-28T10:47:25.520Z,99308.34
2022-09-28T10:50:29.416Z,99314.53
2022-09-28T10:53:32.025Z,99303.50
2022-09-28T10:56:38.043Z,99305.25
2022-09-28T10:59:42.542Z,99305.84
2022-09-28T11:02:46.464Z,99303.50
2022-09-28T11:06:01.657Z,99307.47
2022-09-28T11:09:08.425Z,99304.84
2022-09-28T11:12:18.127Z,99312.53
2022-09-28T11:15:23.295Z,99310.19
2022-09-28T11:18:32.328Z,99303.59
2022-09-28T11:21:42.863Z,99306.66
2022-09-28T11:24:45.404Z,99307.06
2022-09-28T11:27:57.929Z,99308.81
2022-09-28T11:31:01.773Z,99309.56
2022-09-28T11:34:14.288Z,99310.84
2022-09-28T11:37:44.433Z,99302.50
2022-09-28T11:41:01.284Z,99312.56
2022-09-28T11:44:19.380Z,99301.69
2022-09-28T11:47:55.956Z,99304.00
2022-09-28T11:51:05.149Z,99309.13
2022-09-28T11:54:16.555Z,99311.25
2022-09-28T11:57:23.097Z,99311.88
2022-09-28T12:00:26.058Z,99315.31
2022-09-28T12:03:36.762Z,99317.53
2022-09-28T12:06:45.983Z,99320.00
2022-09-28T12:09:55.013Z,99324.09
2022-09-28T12:13:02.470Z,99320.16
2022-09-28T12:19:38.154Z,99324.91
2022-09-28T12:22:46.809Z,99323.78
2022-09-28T12:25:55.950Z,99321.44
2022-09-28T12:29:01.450Z,99324.09
2022-09-28T12:32:11.773Z,99326.16
2022-09-28T12:35:16.800Z,99321.31
2022-09-28T12:38:38.054Z,99325.19
2022-09-28T12:41:56.438Z,99325.56
2022-09-28T12:45:20.375Z,99328.91
2022-09-28T12:48:40.513Z,99326.88
2022-09-28T12:51:49.871Z,99324.59
2022-09-28T12:55:18.955Z,99323.16
2022-09-28T12:58:36.441Z,99329.25
2022-09-28T13:01:59.047Z,99321.13
2022-09-28T13:05:17.178Z,99325.44
2022-09-28T13:08:26.098Z,99324.81
2022-09-28T13:11:34.784Z,99323.19
2022-09-28T13:15:02.675Z,99317.81
2022-09-28T13:18:12.662Z,99327.47
2022-09-28T13:21:28.239Z,99325.53
2022-09-28T13:24:36.042Z,99326.31
2022-09-28T13:27:45.362Z,99320.97
2022-09-28T13:30:50.273Z,99323.19
2022-09-28T13:33:53.893Z,99325.44
2022-09-28T13:37:19.873Z,99323.31
2022-09-28T13:40:57.406Z,99323.41
2022-09-28T13:44:33.837Z,99329.38
2022-09-28T13:47:53.772Z,99328.41
2022-09-28T13:51:21.878Z,99324.00
2022-09-28T13:54:51.292Z,99325.41
2022-09-28T13:57:57.748Z,99325.44
2022-09-28T14:01:08.411Z,99335.25
2022-09-28T14:04:16.420Z,99326.22
2022-09-28T14:07:22.896Z,99326.88
2022-09-28T14:10:51.566Z,99324.25
2022-09-28T14:14:02.146Z,99331.00
2022-09-28T14:17:53.432Z,99327.91
2022-09-28T14:21:12.608Z,99339.78
2022-09-28T14:24:27.333Z,99331.91
2022-09-28T14:27:45.047Z,99336.78
2022-09-28T14:30:52.969Z,99333.66
2022-09-28T14:33:58.105Z,99343.22
2022-09-28T14:37:22.044Z,99338.47
2022-09-28T14:40:49.573Z,99337.31
2022-09-28T14:44:03.498Z,99339.63
2022-09-28T14:47:34.058Z,99341.63
2022-09-28T14:50:36.779Z,99338.25
2022-09-28T14:53:41.152Z,99338.69
2022-09-28T14:56:48.105Z,99343.22
2022-09-28T14:59:50.754Z,99345.19
2022-09-28T15:02:56.008Z,99350.56
2022-09-28T15:05:58.581Z,99348.63
2022-09-28T15:09:02.444Z,99346.44
2022-09-28T15:12:08.182Z,99345.25
2022-09-28T15:15:26.665Z,99347.44
2022-09-28T15:18:55.286Z,99348.69
2022-09-28T15:21:57.846Z,99347.72
2022-09-28T15:25:03.268Z,99346.38
2022-09-28T15:28:19.070Z,99352.75
2022-09-28T15:31:23.921Z,99353.63
2022-09-28T15:34:49.054Z,99350.84
2022-09-28T15:37:52.283Z,99353.97
2022-09-28T15:40:56.562Z,99359.31
2022-09-28T15:44:09.618Z,99366.84
2022-09-28T15:47:14.777Z,99367.31
2022-09-28T15:50:23.842Z,99366.56
2022-09-28T15:53:27.476Z,99367.44
2022-09-28T15:56:32.183Z,99371.81
2022-09-28T15:59:36.702Z,99373.84
2022-09-28T16:02:39.429Z,99375.78
2022-09-28T16:05:46.593Z,99377.09
2022-09-28T16:08:49.448Z,99374.78
2022-09-28T16:11:53.284Z,99387.03
2022-09-28T16:14:56.825Z,99390.25
2022-09-28T16:18:02.856Z,99391.56
2022-09-28T16:21:40.825Z,99393.97
2022-09-28T16:24:43.653Z,99401.78
2022-09-28T16:27:47.486Z,99393.81
2022-09-28T16:31:01.620Z,99395.97
2022-09-28T16:34:19.866Z,99399.31
2022-09-28T16:37:32.260Z,99398.19
2022-09-28T16:40:40.818Z,99399.69
2022-09-28T16:43:45.687Z,99404.81
2022-09-28T16:46:48.452Z,99395.84
2022-09-28T16:49:51.465Z,99402.47
2022-09-28T16:53:29.705Z,99399.38
2022-09-28T16:56:32.978Z,99402.06
2022-09-28T16:59:38.249Z,99404.00
2022-09-28T17:02:46.582Z,99417.34
2022-09-28T17:05:49.844Z,99415.00
2022-09-28T17:08:52.363Z,99415.63
2022-09-28T17:11:56.633Z,99413.09
2022-09-28T17:15:00.817Z,99414.34
2022-09-28T17:18:03.616Z,99416.72
2022-09-28T17:21:10.698Z,99421.81
2022-09-28T17:24:13.223Z,99427.13
2022-09-28T17:27:20.896Z,99424.59
2022-09-28T17:30:25.841Z,99433.72
2022-09-28T17:33:29.160Z,99434.03
2022-09-28T17:36:31.720Z,99432.03
2022-09-28T17:39:34.808Z,99435.09
2022-09-28T17:42:37.287Z,99432.19
2022-09-28T17:45:41.447Z,99441.28
2022-09-28T17:48:46.024Z,99446.81
2022-09-28T17:51:50.047Z,99450.09
2022-09-28T17:54:52.548Z,99452.72
2022-09-28T17:57:55.375Z,99451.75
2022-09-28T18:00:59.310Z,99452.16
2022-09-28T18:04:02.549Z,99458.44
2022-09-28T18:07:05.086Z,99456.47
2022-09-28T18:10:08.775Z,99459.13
2022-09-28T18:13:11.440Z,99454.59
2022-09-28T18:16:15.918Z,99461.16
2022-09-28T18:19:18.475Z,99457.53
2022-09-28T18:22:20.953Z,99456.88
2022-09-28T18:25:23.489Z,99462.59
2022-09-28T18:28:26.099Z,99457.50
2022-09-28T18:31:30.124Z,99461.84
2022-09-28T18:34:36.404Z,99466.31
2022-09-28T18:37:39.882Z,99477.25
2022-09-28T18:40:43.077Z,99476.88
2022-09-28T18:43:50.003Z,99471.66
2022-09-28T18:46:54.310Z,99479.34
2022-09-28T18:49:58.490Z,99486.53
2022-09-28T18:53:11.413Z,99482.38
2022-09-28T18:56:18.111Z,99486.16
2022-09-28T18:59:20.664Z,99495.47
2022-09-28T19:02:24.553Z,99496.97
2022-09-28T19:05:27.453Z,99499.25
2022-09-28T19:08:29.966Z,99508.91
2022-09-28T19:11:32.927Z,99511.78
2022-09-28T19:14:35.419Z,99514.22
2022-09-28T19:17:39.695Z,99511.69
2022-09-28T19:20:42.185Z,99513.56
2022-09-28T19:23:49.181Z,99512.69
2022-09-28T19:26:53.473Z,99513.09
2022-09-28T19:29:55.968Z,99521.78
2022-09-28T19:32:59.957Z,99515.94
2022-09-28T19:36:05.265Z,99525.13
2022-09-28T19:39:07.841Z,99520.84
2022-09-28T19:42:10.330Z,99523.09
2022-09-28T19:45:12.808Z,99526.03
2022-09-28T19:48:16.709Z,99532.66
2022-09-28T19:51:19.502Z,99537.69
2022-09-28T19:54:22.168Z,99536.09
2022-09-28T19:57:25.855Z,99540.41
2022-09-28T20:00:28.551Z,99545.44
2022-09-28T20:03:32.384Z,99545.63
2022-09-28T20:06:34.889Z,99553.81
2022-09-28T20:09:37.474Z,99544.06
2022-09-28T20:12:42.150Z,99547.66
2022-09-28T20:15:45.211Z,99546.97
2022-09-28T20:18:50.333Z,99553.91
2022-09-28T20:21:52.830Z,99555.78
2022-09-28T20:24:55.325Z,99558.41
2022-09-28T20:27:58.329Z,99560.84
2022-09-28T20:31:03.132Z,99557.81
2022-09-28T20:34:07.831Z,99557.19
2022-09-28T20:37:12.398Z,99557.00
2022-09-28T20:40:14.943Z,99559.53
2022-09-28T20:43:17.424Z,99561.91
2022-09-28T20:46:21.843Z,99563.50
2022-09-28T20:49:27.121Z,99560.69
2022-09-28T20:52:29.605Z,99562.56
2022-09-28T20:55:32.094Z,99559.91
2022-09-28T20:58:35.181Z,99567.94
2022-09-28T21:01:37.784Z,99563.88
2022-09-28T21:04:41.795Z,99564.22
2022-09-28T21:07:44.276Z,99566.00
2022-09-28T21:10:46.852Z,99569.97
2022-09-28T21:13:52.571Z,99573.13
2022-09-28T21:16:55.151Z,99573.88
2022-09-28T21:19:59.152Z,99585.41
2022-09-28T21:23:02.280Z,99583.03
2022-09-28T21:26:06.863Z,99584.22
2022-09-28T21:29:13.285Z,99585.44
2022-09-28T21:32:15.771Z,99578.63
2022-09-28T21:35:19.597Z,99579.47
2022-09-28T21:38:22.185Z,99583.41
2022-09-28T21:41:25.435Z,99576.72
2022-09-28T21:44:28.007Z,99587.31
2022-09-28T21:47:30.742Z,99583.16
2022-09-28T21:50:34.591Z,99590.75
2022-09-28T21:53:38.629Z,99595.19
2022-09-28T21:56:41.187Z,99590.25
2022-09-28T21:59:43.683Z,99590.31
2022-09-28T22:02:46.488Z,99595.78
2022-09-28T22:05:53.002Z,99601.69
2022-09-28T22:08:55.963Z,99601.50
2022-09-28T22:11:58.574Z,99600.22
2022-09-28T22:15:01.090Z,99601.00
2022-09-28T22:18:03.838Z,99598.78
2022-09-28T22:21:09.842Z,99604.75
2022-09-28T22:24:12.380Z,99604.59
2022-09-28T22:27:16.315Z,99601.59
2022-09-28T22:30:18.805Z,99601.00
2022-09-28T22:33:21.320Z,99596.91
2022-09-28T22:36:25.826Z,99604.25
2022-09-28T22:39:28.372Z,99605.59
2022-09-28T22:42:32.530Z,99608.50
2022-09-28T22:45:35.091Z,99609.63
2022-09-28T22:48:38.463Z,99607.84
2022-09-28T22:51:42.391Z,99612.44
2022-09-28T22:54:45.483Z,99613.81
2022-09-28T22:57:48.014Z,99607.47
2022-09-28T23:00:50.658Z,99615.66
2022-09-28T23:03:54.338Z,99608.69
2022-09-28T23:06:58.185Z,99611.06
2022-09-28T23:10:00.665Z,99617.03
2022-09-28T23:13:03.149Z,99612.97
2022-09-28T23:16:07.650Z,99617.53
2022-09-28T23:19:10.226Z,99624.22
2022-09-28T23:22:14.066Z,99620.97
2022-09-28T23:25:17.987Z,99614.13
2022-09-28T23:28:21.457Z,99619.25
2022-09-28T23:31:26.438Z,99616.53
2022-09-28T23:34:28.961Z,99616.91
2022-09-28T23:37:32.799Z,99613.03
2022-09-28T23:40:35.336Z,99613.97
2022-09-28T23:43:37.875Z,99617.09
2022-09-28T23:46:40.393Z,99619.09
2022-09-28T23:49:42.908Z,99621.44
2022-09-28T23:52:48.523Z,99620.59
2022-09-28T23:55:50.988Z,99619.31
2022-09-28T23:58:53.493Z,99626.78
